Meteo Giornale » Osservazioni meteo Italia » Messina

ore: 16:55 - Osservazioni Meteo Messina
Lat. 38° 12' N Lon. 15° 33' E Alt. 59 metri s.l.m.

coperto_pioggia Europe/Rome

11 °C

Pioggia Debole

Temp. 24 Ore

9 °C

14 °C

Ovest/Sud-Ovest

9.3 Km/h

Dew point 9 °C

Umidità 87 %

Visibilità  9 Km

Il sole sorge alle ore 07:03

Il sole tramonta alle ore 16:39

Data e Ora Cielo e Fenomeni T °C DP °C Um. % Pres. hPa Vis. km Vento km/h
Oggi h: 16:55 coperto_pioggia Pioggia Debole 11 9 87 1017 9 O/SO 9.3
Oggi h: 15:55 coperto_pioggia Pioggia Debole 13 10 81 1017 9 SO 11.1
Oggi h: 14:55 coperto_pioggia Pioggia Debole 13 10 81 1017 9 SO 9.3
Oggi h: 13:55 nuvoloso Nuvoloso 14 8 67 1017 10 S/SO 11.1
Oggi h: 12:55 nuvoloso Nuvoloso 13 10 81 1018 10 SO 9.3
Oggi h: 11:55 nuvoloso Nuvoloso 14 8 67 1018 10 SO 9.3
Oggi h: 10:55 poco_nuvoloso Poco Nuvoloso 13 8 71 1019 10 S/SO 9.3
Oggi h: 09:55 poco_nuvoloso Poco Nuvoloso 13 6 62 1018 10 SO 9.3
Oggi h: 08:55 poco_nuvoloso Poco Nuvoloso 12 7 71 1018 10 N 5.5
Oggi h: 06:55 molto_nuvoloso Molto Nuvoloso 11 8 81 1018 10 N 0
Oggi h: 05:55 molto_nuvoloso Molto Nuvoloso 11 7 76 1018 10 N 3.7
Oggi h: 04:55 molto_nuvoloso Molto Nuvoloso 11 7 76 1018 10 N 0
Oggi h: 03:55 coperto_pioggia Pioggia Debole 10 6 76 1018 8 N 3.7
Oggi h: 02:55 nuvoloso Nuvoloso 11 4 61 1018 10 NO 14.8
Oggi h: 01:55 nuvoloso Nuvoloso 10 5 71 1018 10 N 5.5
Oggi h: 00:55 nuvoloso Nuvoloso 9 6 81 1018 10 N 0
Ieri h: 23:55 nuvoloso Nuvoloso 9 6 81 1018 10 N 1.8
Ieri h: 22:55 nuvoloso Nuvoloso 9 6 81 1018 10 N 0
Ieri h: 21:55 nuvoloso Nuvoloso 10 6 76 1018 10 N 0
Ieri h: 20:55 nuvoloso Nuvoloso 11 5 66 1017 10 N 1.8
Ieri h: 19:55 nuvoloso Nuvoloso 11 2 53 1017 10 N 3.7
Ieri h: 18:55 nuvoloso Nuvoloso 12 1 46 1017 10 NO 7.4
Ieri h: 17:55 nuvoloso Nuvoloso 12 1 46 1016 10 O/NO 7.4